Portada
METAR-TAF:

METAR-TAF

Aeropuertos :

Aeropuerto Internacional Bonriki

Tarawa, Kiribati

latitud: 01-21N, longitud: 172-55E, altitud: 2 m

Observación

El informe se hizo hace 13 minutos, a las 23:00 UTC
Viento 11 kt del este
Temperatura 32°C
Humedad 71%
Presión 1010 hPa
Visibilidad 10 km o más
Escasas nubes a una altura de 2000 ft
Cielo nuboso a una altura de 30000 ft

METAR: NGTA 202300Z 10011KT 9999 FEW020 BKN300 32/26 Q1010

Hora: 13:13 (23:13 UTC)

Pronóstico

El informe se hizo hace 6 horas y 6 minutos, a las 17:07 UTC
Pronóstico válido del 20 a las 18 UTC al 21 a las 18 UTC
Viento 8 kt del este
Visibilidad 10 km o más
Escasas nubes a una altura de 2000 ft

TAF: NGTA 201707Z 2018/2118 10008KT 9999 FEW020

Observaciones y pronósticos meteorológicos de más de 4000 aeropuertos (mensajes METAR y TAF).

Los puntos amarillos y rojos representan las estaciones disponibles.

Ponga el ratón en el punto deseado para ver el nombre de la estación.

Haga clic para ver las observaciones y los pronósticos meteorológicos.

Para cambiar el mapa : haga clic en los botones verdes con una cruz de color negro para hacer un zoom, en el botón verde con un guión para alejar o en las flechas verdes para mapas adyacentes.


METAR-TAF: